createdAt,value
2019-05-30T05:11:58.678Z,540.88
2019-05-30T05:21:58.397Z,583.80
2019-05-30T05:31:58.307Z,601.68
2019-05-30T05:41:58.389Z,626.94
2019-05-30T05:51:58.447Z,705.97
2019-05-30T06:01:58.523Z,681.35
2019-05-30T06:11:58.492Z,679.71
2019-05-30T06:21:58.867Z,744.07
2019-05-30T06:31:58.745Z,801.64
2019-05-30T06:41:58.713Z,824.47
2019-05-30T06:51:58.777Z,845.57
2019-05-30T07:01:58.543Z,862.97
2019-05-30T07:11:58.605Z,1035.95
2019-05-30T07:21:58.562Z,1030.31
2019-05-30T07:31:58.650Z,977.84
2019-05-30T07:42:06.206Z,981.30
2019-05-30T07:51:58.268Z,987.34
2019-05-30T08:01:58.964Z,1000.76
2019-05-30T08:11:59.026Z,963.41
2019-05-30T08:21:59.311Z,953.89
2019-05-30T08:32:01.026Z,914.17
2019-05-30T08:41:59.143Z,922.84
2019-05-30T08:51:59.085Z,919.52
2019-05-30T09:01:59.286Z,963.68
2019-05-30T09:11:59.661Z,1006.45
2019-05-30T09:21:59.030Z,961.67
2019-05-30T09:31:59.167Z,992.55
2019-05-30T09:41:59.155Z,970.06
2019-05-30T09:51:59.211Z,1024.21
2019-05-30T10:01:59.073Z,1107.20
2019-05-30T10:11:59.361Z,1053.25
2019-05-30T10:21:59.223Z,1071.33
2019-05-30T10:31:59.299Z,1064.66
2019-05-30T10:41:59.156Z,1019.34
2019-05-30T10:51:59.541Z,1061.80
2019-05-30T11:01:58.985Z,1019.88
2019-05-30T11:11:59.053Z,966.23
2019-05-30T11:21:59.239Z,993.37
2019-05-30T11:31:59.149Z,995.33
2019-05-30T11:41:59.516Z,989.90
2019-05-30T11:51:59.984Z,987.20
2019-05-30T12:02:00.455Z,953.12
2019-05-30T12:11:59.288Z,992.01
2019-05-30T12:21:59.887Z,981.90
2019-05-30T12:32:00.663Z,978.92
2019-05-30T12:41:59.098Z,972.13
2019-05-30T12:52:00.500Z,944.22
2019-05-30T13:01:59.107Z,973.15
2019-05-30T13:12:00.237Z,957.52
2019-05-30T13:21:59.353Z,996.36
2019-05-30T13:32:02.543Z,939.74
2019-05-30T13:41:59.574Z,953.84
2019-05-30T13:52:00.757Z,949.47
2019-05-30T14:01:59.819Z,979.30
2019-05-30T14:12:00.332Z,935.57
2019-05-30T14:22:01.069Z,930.64
2019-05-30T14:31:59.030Z,913.44
2019-05-30T14:41:59.223Z,901.39
2019-05-30T14:51:59.600Z,864.44
2019-05-30T15:01:58.869Z,875.25
2019-05-30T15:11:58.285Z,850.49
2019-05-30T15:21:58.875Z,818.15
2019-05-30T15:31:58.543Z,802.28
2019-05-30T15:41:58.715Z,804.37
2019-05-30T15:51:58.467Z,752.20
2019-05-30T16:01:58.238Z,743.55
2019-05-30T16:11:58.473Z,743.85
2019-05-30T16:21:58.369Z,768.58
2019-05-30T16:31:58.375Z,776.74
2019-05-30T16:41:58.410Z,762.30
2019-05-30T16:51:58.381Z,754.78
2019-05-30T17:01:58.701Z,758.56
2019-05-30T17:11:59.447Z,749.90
2019-05-30T17:21:58.595Z,754.89
2019-05-30T17:31:58.883Z,740.80
2019-05-30T17:41:58.747Z,722.37
2019-05-30T17:51:58.620Z,704.79
2019-05-30T18:02:00.884Z,712.15
2019-05-30T18:11:58.743Z,693.24
2019-05-30T18:21:58.699Z,692.12
2019-05-30T18:31:59.289Z,680.42
2019-05-30T18:41:59.055Z,643.99
2019-05-30T18:51:58.727Z,628.12
2019-05-30T19:01:58.691Z,612.35
